createdAt,value
2022-12-24T00:01:21.827Z,96242.63
2022-12-24T00:03:49.668Z,96244.97
2022-12-24T00:06:23.391Z,96251.28
2022-12-24T00:08:51.633Z,96247.59
2022-12-24T00:11:19.677Z,96234.22
2022-12-24T00:13:48.345Z,96235.81
2022-12-24T00:16:15.662Z,96226.88
2022-12-24T00:18:46.256Z,96222.44
2022-12-24T00:21:15.910Z,96227.97
2022-12-24T00:23:43.886Z,96221.69
2022-12-24T00:26:11.920Z,96224.03
2022-12-24T00:28:39.497Z,96212.50
2022-12-24T00:31:19.190Z,96218.53
2022-12-24T00:33:47.839Z,96210.19
2022-12-24T00:36:16.478Z,96228.53
2022-12-24T00:38:44.623Z,96221.72
2022-12-24T00:41:26.023Z,96226.97
2022-12-24T00:44:05.647Z,96222.53
2022-12-24T00:46:34.965Z,96214.66
2022-12-24T00:49:02.613Z,96219.91
2022-12-24T00:51:30.311Z,96229.59
2022-12-24T00:53:57.978Z,96230.66
2022-12-24T00:56:25.429Z,96239.31
2022-12-24T00:58:53.421Z,96242.44
2022-12-24T01:01:23.686Z,96248.19
2022-12-24T01:03:51.769Z,96245.31
2022-12-24T01:06:21.684Z,96246.63
2022-12-24T01:08:52.485Z,96246.06
2022-12-24T01:11:19.936Z,96258.09
2022-12-24T01:13:47.173Z,96255.47
2022-12-24T01:16:21.195Z,96256.00
2022-12-24T01:18:48.605Z,96254.13
2022-12-24T01:21:16.616Z,96251.78
2022-12-24T01:23:44.504Z,96261.53
2022-12-24T01:26:15.004Z,96260.22
2022-12-24T01:28:42.857Z,96262.56
2022-12-24T01:31:19.083Z,96252.38
2022-12-24T01:33:49.088Z,96254.47
2022-12-24T01:36:16.572Z,96251.34
2022-12-24T01:38:43.868Z,96246.09
2022-12-24T01:41:40.959Z,96244.25
2022-12-24T01:44:36.969Z,96239.25
2022-12-24T01:47:14.288Z,96238.22
2022-12-24T01:49:52.626Z,96233.25
2022-12-24T01:52:34.410Z,96231.69
2022-12-24T01:55:16.643Z,96236.41
2022-12-24T01:57:59.990Z,96227.22
2022-12-24T02:00:27.395Z,96236.13
2022-12-24T02:02:55.947Z,96230.63
2022-12-24T02:05:31.157Z,96225.34
2022-12-24T02:08:01.941Z,96237.66
2022-12-24T02:10:29.150Z,96232.09
2022-12-24T02:12:58.525Z,96232.72
2022-12-24T02:15:29.107Z,96240.09
2022-12-24T02:18:15.021Z,96231.06
2022-12-24T02:21:15.917Z,96233.03
2022-12-24T02:23:49.248Z,96248.16
2022-12-24T02:26:42.981Z,96238.19
2022-12-24T02:29:59.551Z,96235.34
2022-12-24T02:32:49.053Z,96247.81
2022-12-24T02:35:52.196Z,96261.75
2022-12-24T02:38:47.054Z,96284.44
2022-12-24T02:41:26.645Z,96298.22
2022-12-24T02:43:57.855Z,96286.78
2022-12-24T02:46:29.901Z,96291.22
2022-12-24T02:48:59.351Z,96299.34
2022-12-24T02:51:26.666Z,96289.97
2022-12-24T02:53:54.017Z,96317.50
2022-12-24T02:56:45.559Z,96322.56
2022-12-24T02:59:49.219Z,96332.31
2022-12-24T03:03:07.787Z,96334.88
2022-12-24T03:05:56.166Z,96329.38
2022-12-24T03:09:01.155Z,96327.91
2022-12-24T03:11:28.629Z,96321.69
2022-12-24T03:13:59.109Z,96332.97
2022-12-24T03:16:28.482Z,96338.38
2022-12-24T03:18:58.623Z,96334.38
2022-12-24T03:21:38.227Z,96322.03
2022-12-24T03:24:05.841Z,96331.22
2022-12-24T03:26:34.298Z,96342.00
2022-12-24T03:29:06.948Z,96333.53
2022-12-24T03:31:48.949Z,96338.84
2022-12-24T03:34:19.049Z,96335.94
2022-12-24T03:36:48.471Z,96343.84
2022-12-24T03:39:16.438Z,96335.16
2022-12-24T03:41:43.759Z,96345.94
2022-12-24T03:44:11.262Z,96348.84
2022-12-24T03:46:38.544Z,96350.19
2022-12-24T03:49:05.823Z,96354.88
2022-12-24T03:51:33.389Z,96347.72
2022-12-24T03:54:00.889Z,96358.31
2022-12-24T03:56:28.276Z,96351.94
2022-12-24T03:58:55.493Z,96343.31
2022-12-24T04:01:22.975Z,96350.16
2022-12-24T04:03:50.479Z,96350.31
2022-12-24T04:06:18.149Z,96340.31
2022-12-24T04:08:45.477Z,96351.00
2022-12-24T04:11:15.552Z,96351.59
2022-12-24T04:13:43.128Z,96356.13
2022-12-24T04:16:13.762Z,96347.94
2022-12-24T04:18:41.571Z,96364.72
2022-12-24T04:21:09.450Z,96375.00
2022-12-24T04:23:39.008Z,96369.50
2022-12-24T04:26:08.953Z,96370.59
2022-12-24T04:28:38.061Z,96375.59
2022-12-24T04:31:09.134Z,96379.00
2022-12-24T04:33:37.017Z,96395.84
2022-12-24T04:36:06.678Z,96393.41
2022-12-24T04:38:35.082Z,96397.09
2022-12-24T04:41:07.321Z,96396.84
2022-12-24T04:43:35.115Z,96402.38
2022-12-24T04:46:15.070Z,96400.63
2022-12-24T04:48:42.584Z,96403.53
2022-12-24T04:51:11.746Z,96404.81
2022-12-24T04:53:41.039Z,96412.72
2022-12-24T04:56:28.086Z,96411.16
2022-12-24T04:58:55.580Z,96409.84
2022-12-24T05:01:26.515Z,96411.13
2022-12-24T05:03:54.777Z,96405.41
2022-12-24T05:06:29.834Z,96413.00
2022-12-24T05:08:59.179Z,96418.81
2022-12-24T05:11:27.191Z,96414.56
2022-12-24T05:13:54.667Z,96421.06
2022-12-24T05:16:24.066Z,96413.94
2022-12-24T05:18:52.028Z,96417.03
2022-12-24T05:21:22.400Z,96432.03
2022-12-24T05:24:08.908Z,96426.59
2022-12-24T05:26:56.043Z,96432.84
2022-12-24T05:29:23.943Z,96432.06
2022-12-24T05:31:51.190Z,96428.13
2022-12-24T05:34:18.587Z,96428.94
2022-12-24T05:36:46.338Z,96437.03
2022-12-24T05:39:18.344Z,96442.06
2022-12-24T05:41:47.733Z,96433.88
2022-12-24T05:44:16.579Z,96434.63
2022-12-24T05:46:44.964Z,96443.69
2022-12-24T05:49:13.057Z,96448.16
2022-12-24T05:51:41.235Z,96449.50
2022-12-24T05:54:08.751Z,96441.81
2022-12-24T05:56:36.064Z,96439.72
2022-12-24T05:59:03.446Z,96444.09
2022-12-24T06:01:30.974Z,96455.91
2022-12-24T06:03:58.696Z,96453.59
2022-12-24T06:06:28.280Z,96453.84
2022-12-24T06:08:56.534Z,96450.69
2022-12-24T06:11:28.211Z,96462.75
2022-12-24T06:13:56.265Z,96470.44
2022-12-24T06:16:24.919Z,96473.03
2022-12-24T06:18:52.791Z,96470.94
2022-12-24T06:21:20.187Z,96477.50
2022-12-24T06:23:47.701Z,96480.63
2022-12-24T06:26:21.843Z,96485.09
2022-12-24T06:28:50.954Z,96487.50
2022-12-24T06:31:21.875Z,96489.56
2022-12-24T06:33:49.756Z,96494.28
2022-12-24T06:36:23.734Z,96509.03
2022-12-24T06:38:52.578Z,96508.22
2022-12-24T06:41:20.860Z,96508.81
2022-12-24T06:43:51.159Z,96510.38
2022-12-24T06:46:19.635Z,96513.75
2022-12-24T06:48:48.510Z,96515.34
2022-12-24T06:51:19.955Z,96512.13
2022-12-24T06:53:50.906Z,96515.59
2022-12-24T06:56:19.736Z,96515.59
2022-12-24T06:58:47.674Z,96519.81
2022-12-24T07:01:17.302Z,96527.44
2022-12-24T07:03:44.701Z,96525.84
2022-12-24T07:06:26.667Z,96516.41
2022-12-24T07:08:54.528Z,96528.78
2022-12-24T07:11:24.921Z,96525.28
2022-12-24T07:13:52.382Z,96533.19
2022-12-24T07:16:19.736Z,96539.72
2022-12-24T07:18:47.159Z,96547.34
2022-12-24T07:21:14.409Z,96545.53
2022-12-24T07:23:41.741Z,96538.41
2022-12-24T07:26:09.063Z,96542.09
2022-12-24T07:28:36.268Z,96541.53
2022-12-24T07:31:03.689Z,96542.34
2022-12-24T07:33:31.367Z,96558.16
2022-12-24T07:36:07.591Z,96550.06
2022-12-24T07:38:35.806Z,96547.22
2022-12-24T07:41:03.368Z,96559.53
2022-12-24T07:43:33.015Z,96566.31
2022-12-24T07:46:00.345Z,96561.53
2022-12-24T07:48:29.713Z,96568.63
2022-12-24T07:50:57.742Z,96567.75
2022-12-24T07:53:26.855Z,96569.88
2022-12-24T07:55:54.967Z,96561.44
2022-12-24T07:58:23.460Z,96561.47
2022-12-24T08:00:59.130Z,96566.91
2022-12-24T08:03:27.373Z,96573.25
2022-12-24T08:05:55.231Z,96582.84
2022-12-24T08:08:22.603Z,96580.47
2022-12-24T08:10:50.243Z,96582.53
2022-12-24T08:13:18.198Z,96591.81
2022-12-24T08:15:46.151Z,96586.53
2022-12-24T08:18:13.458Z,96584.44
2022-12-24T08:20:41.685Z,96592.16
2022-12-24T08:23:09.347Z,96590.41
2022-12-24T08:25:37.641Z,96595.38
2022-12-24T08:28:06.033Z,96614.22
2022-12-24T08:30:34.012Z,96613.16
2022-12-24T08:33:01.482Z,96610.78
2022-12-24T08:35:29.005Z,96613.72
2022-12-24T08:37:56.582Z,96617.25
2022-12-24T08:40:24.387Z,96634.28
2022-12-24T08:42:51.878Z,96632.16
2022-12-24T08:45:20.034Z,96640.38
2022-12-24T08:47:47.751Z,96644.06
2022-12-24T08:50:15.727Z,96648.31
2022-12-24T08:52:43.202Z,96658.00
2022-12-24T08:55:10.747Z,96666.19
2022-12-24T08:57:38.656Z,96656.88
2022-12-24T09:00:07.872Z,96666.94
2022-12-24T09:02:35.905Z,96671.69
2022-12-24T09:05:03.941Z,96671.50
2022-12-24T09:07:31.514Z,96671.97
2022-12-24T09:09:59.099Z,96678.59
2022-12-24T09:12:26.457Z,96666.50
2022-12-24T09:14:59.618Z,96676.91
2022-12-24T09:17:30.585Z,96672.34
2022-12-24T09:19:58.218Z,96670.16
2022-12-24T09:22:25.546Z,96673.63
2022-12-24T09:24:55.045Z,96677.16
2022-12-24T09:27:22.602Z,96671.72
2022-12-24T09:29:50.269Z,96674.06
2022-12-24T09:32:17.738Z,96671.06
2022-12-24T09:34:45.191Z,96671.38
2022-12-24T09:37:12.792Z,96679.00
2022-12-24T09:39:40.216Z,96689.25
2022-12-24T09:42:40.802Z,96679.56
2022-12-24T09:45:28.828Z,96677.84
2022-12-24T09:48:06.019Z,96672.06
2022-12-24T09:50:53.287Z,96676.72
2022-12-24T09:53:55.991Z,96677.00
2022-12-24T09:56:40.301Z,96688.72
2022-12-24T09:59:20.763Z,96678.91
2022-12-24T10:01:51.295Z,96682.84
2022-12-24T10:04:27.843Z,96686.88
2022-12-24T10:07:25.145Z,96686.19
2022-12-24T10:10:37.875Z,96695.06
2022-12-24T10:13:18.575Z,96691.75
2022-12-24T10:15:59.132Z,96699.78
2022-12-24T10:19:03.113Z,96712.38
2022-12-24T10:21:45.301Z,96723.09
2022-12-24T10:25:08.371Z,96726.78
2022-12-24T10:27:40.601Z,96727.41
2022-12-24T10:30:20.449Z,96745.38
2022-12-24T10:32:53.681Z,96742.41
2022-12-24T10:35:26.718Z,96749.88
2022-12-24T10:37:54.560Z,96755.72
2022-12-24T10:44:29.788Z,96755.13
2022-12-24T10:46:57.923Z,96752.31
2022-12-24T10:49:58.013Z,96757.09
2022-12-24T10:52:33.659Z,96760.25
2022-12-24T10:55:28.301Z,96756.84
2022-12-24T11:03:00.673Z,96781.06
2022-12-24T11:06:00.319Z,96773.44
2022-12-24T11:08:27.774Z,96779.53
2022-12-24T11:11:08.943Z,96784.78
2022-12-24T11:13:46.060Z,96786.06
2022-12-24T11:16:32.382Z,96782.66
2022-12-24T11:19:03.419Z,96791.88
2022-12-24T11:21:38.228Z,96788.22
2022-12-24T11:24:26.005Z,96800.56
2022-12-24T11:26:53.624Z,96805.53
2022-12-24T11:29:28.273Z,96805.03
2022-12-24T11:32:22.086Z,96808.22
2022-12-24T11:34:51.031Z,96812.13
2022-12-24T11:37:24.034Z,96812.69
2022-12-24T11:39:56.257Z,96814.00
2022-12-24T11:42:38.172Z,96814.25
2022-12-24T11:45:26.761Z,96818.72
2022-12-24T11:47:55.040Z,96831.16
2022-12-24T11:50:35.978Z,96830.59
2022-12-24T11:53:03.108Z,96835.25
2022-12-24T11:55:51.373Z,96845.38
2022-12-24T11:58:53.974Z,96849.59
2022-12-24T12:01:50.230Z,96850.38
2022-12-24T12:04:35.361Z,96847.47
2022-12-24T12:07:16.609Z,96849.03
2022-12-24T12:09:54.847Z,96850.06
2022-12-24T12:12:34.869Z,96851.03
2022-12-24T12:15:20.338Z,96856.03
2022-12-24T12:17:54.657Z,96865.22
2022-12-24T12:20:46.388Z,96869.47
2022-12-24T12:23:36.757Z,96870.25
2022-12-24T12:26:32.293Z,96880.84
2022-12-24T12:29:11.790Z,96888.22
2022-12-24T12:31:54.305Z,96881.16
2022-12-24T12:34:33.185Z,96892.16
2022-12-24T12:37:17.089Z,96896.91
2022-12-24T12:39:44.900Z,96899.09
2022-12-24T12:42:38.927Z,96899.06
2022-12-24T12:45:53.152Z,96909.06
2022-12-24T12:49:10.724Z,96912.28
2022-12-24T12:52:02.527Z,96914.94
2022-12-24T12:55:02.526Z,96921.22
2022-12-24T12:57:37.040Z,96924.91
2022-12-24T13:00:09.990Z,96929.69
2022-12-24T13:03:28.911Z,96936.81
2022-12-24T13:06:41.680Z,96942.34
2022-12-24T13:09:38.883Z,96956.59
2022-12-24T13:12:26.194Z,96954.22
2022-12-24T13:14:53.305Z,96962.91
2022-12-24T13:17:45.516Z,96960.28
2022-12-24T13:20:21.424Z,96963.47
2022-12-24T13:23:00.905Z,96956.88
2022-12-24T13:25:38.861Z,96963.47
2022-12-24T13:28:33.993Z,96954.78
2022-12-24T13:31:24.784Z,96975.03
2022-12-24T13:34:00.392Z,96974.50
2022-12-24T13:37:20.227Z,96974.25
2022-12-24T13:40:16.987Z,96982.94
2022-12-24T13:42:56.654Z,96978.97
2022-12-24T13:45:30.304Z,96993.75
2022-12-24T13:48:11.399Z,97004.56
2022-12-24T13:50:53.721Z,96998.72
2022-12-24T13:53:33.894Z,97009.81
2022-12-24T13:56:09.830Z,97016.13
2022-12-24T13:58:53.295Z,97019.81
2022-12-24T14:01:33.915Z,97029.03
2022-12-24T14:04:05.574Z,97024.00
2022-12-24T14:06:40.226Z,97026.66
2022-12-24T14:09:16.587Z,97035.59
2022-12-24T14:12:01.900Z,97036.91
2022-12-24T14:14:42.021Z,97042.16
2022-12-24T14:17:27.044Z,97037.69
2022-12-24T14:20:02.456Z,97042.94
2022-12-24T14:22:42.174Z,97048.50
2022-12-24T14:25:24.987Z,97053.75
2022-12-24T14:28:03.922Z,97046.88
2022-12-24T14:30:32.841Z,97059.56
2022-12-24T14:33:00.381Z,97067.94
2022-12-24T14:35:38.760Z,97062.16
2022-12-24T14:38:18.853Z,97071.13
2022-12-24T14:41:28.488Z,97075.00
2022-12-24T14:44:37.199Z,97080.81
2022-12-24T14:47:22.501Z,97084.44
2022-12-24T14:50:37.597Z,97093.94
2022-12-24T14:53:23.982Z,97104.50
2022-12-24T14:55:51.430Z,97103.94
2022-12-24T14:58:32.587Z,97103.19
2022-12-24T15:01:20.120Z,97109.50
2022-12-24T15:04:06.084Z,97107.88
2022-12-24T15:06:52.861Z,97119.97
2022-12-24T15:09:23.920Z,97126.84
2022-12-24T15:12:04.527Z,97129.16
2022-12-24T15:14:44.040Z,97144.22
2022-12-24T15:17:13.444Z,97140.03
2022-12-24T15:19:44.824Z,97140.78
2022-12-24T15:22:31.246Z,97140.22
2022-12-24T15:24:58.768Z,97143.66
2022-12-24T15:27:38.951Z,97149.19
2022-12-24T15:30:27.391Z,97148.44
2022-12-24T15:32:57.462Z,97148.91
2022-12-24T15:35:53.485Z,97150.78
2022-12-24T15:38:39.955Z,97162.59
2022-12-24T15:42:00.031Z,97170.16
2022-12-24T15:44:33.285Z,97174.88
2022-12-24T15:47:02.989Z,97175.72
2022-12-24T15:49:33.363Z,97175.34
2022-12-24T15:52:08.796Z,97184.00
2022-12-24T15:54:36.373Z,97180.06
2022-12-24T15:57:26.145Z,97191.81
2022-12-24T15:59:57.011Z,97192.28
2022-12-24T16:02:36.357Z,97183.47
2022-12-24T16:05:22.624Z,97185.75
2022-12-24T16:08:21.886Z,97192.09
2022-12-24T16:11:10.265Z,97193.63
2022-12-24T16:14:02.989Z,97198.16
2022-12-24T16:16:42.184Z,97206.78
2022-12-24T16:19:26.379Z,97198.91
2022-12-24T16:22:20.869Z,97207.00
2022-12-24T16:24:48.591Z,97207.50
2022-12-24T16:27:15.945Z,97207.00
2022-12-24T16:29:43.250Z,97208.28
2022-12-24T16:32:36.067Z,97213.84
2022-12-24T16:35:08.198Z,97213.59
2022-12-24T16:37:35.702Z,97218.50
2022-12-24T16:40:03.109Z,97228.97
2022-12-24T16:42:49.118Z,97226.44
2022-12-24T16:45:16.527Z,97225.66
2022-12-24T16:47:43.999Z,97225.91
2022-12-24T16:50:17.697Z,97222.22
2022-12-24T16:52:45.191Z,97227.00
2022-12-24T16:55:15.806Z,97232.25
2022-12-24T16:57:44.380Z,97232.00
2022-12-24T17:00:22.232Z,97238.22
2022-12-24T17:02:50.589Z,97236.47
2022-12-24T17:05:18.230Z,97233.69
2022-12-24T17:07:45.902Z,97237.63
2022-12-24T17:10:14.399Z,97240.50
2022-12-24T17:12:42.704Z,97242.91
2022-12-24T17:15:10.926Z,97248.97
2022-12-24T17:17:38.328Z,97254.41
2022-12-24T17:20:06.830Z,97247.78
2022-12-24T17:22:34.235Z,97259.34
2022-12-24T17:25:01.588Z,97265.63
2022-12-24T17:27:29.101Z,97259.44
2022-12-24T17:29:56.497Z,97259.63
2022-12-24T17:32:24.948Z,97260.34
2022-12-24T17:34:52.207Z,97265.84
2022-12-24T17:37:19.772Z,97271.28
2022-12-24T17:39:47.190Z,97271.75
2022-12-24T17:42:14.520Z,97275.06
2022-12-24T17:44:41.807Z,97280.66
2022-12-24T17:47:09.225Z,97280.13
2022-12-24T17:49:36.593Z,97284.75
2022-12-24T17:52:05.218Z,97289.28
2022-12-24T17:54:32.807Z,97297.94
2022-12-24T17:57:00.045Z,97297.47
2022-12-24T17:59:29.601Z,97294.28
2022-12-24T18:01:57.073Z,97309.72
2022-12-24T18:04:24.368Z,97297.78
2022-12-24T18:06:56.269Z,97305.66
2022-12-24T18:09:29.289Z,97307.97
2022-12-24T18:11:56.495Z,97314.50
2022-12-24T18:14:49.735Z,97306.94
2022-12-24T18:17:19.314Z,97312.06
2022-12-24T18:19:46.549Z,97313.28
2022-12-24T18:22:17.339Z,97312.66
2022-12-24T18:25:15.125Z,97326.53
2022-12-24T18:27:42.366Z,97317.53
2022-12-24T18:30:10.557Z,97321.56
2022-12-24T18:32:38.457Z,97319.94
2022-12-24T18:35:06.785Z,97327.22
2022-12-24T18:37:34.615Z,97329.16
2022-12-24T18:40:02.474Z,97330.56
2022-12-24T18:42:29.860Z,97330.16
2022-12-24T18:44:57.187Z,97329.81
2022-12-24T18:47:24.967Z,97340.25
2022-12-24T18:49:52.366Z,97328.59
2022-12-24T18:52:22.726Z,97345.41
2022-12-24T18:54:50.799Z,97342.63
2022-12-24T18:57:18.141Z,97349.03
2022-12-24T18:59:45.434Z,97341.16
2022-12-24T19:02:12.914Z,97345.88
2022-12-24T19:04:40.283Z,97343.47
2022-12-24T19:07:07.536Z,97345.56
2022-12-24T19:09:34.795Z,97340.91
2022-12-24T19:12:02.054Z,97353.28
2022-12-24T19:14:29.228Z,97353.63
2022-12-24T19:16:56.469Z,97359.50
2022-12-24T19:19:24.564Z,97360.47
2022-12-24T19:21:52.017Z,97363.41
2022-12-24T19:24:20.414Z,97365.56
2022-12-24T19:26:48.908Z,97377.00
2022-12-24T19:29:16.261Z,97366.59
2022-12-24T19:31:47.342Z,97376.63
2022-12-24T19:34:14.886Z,97376.44
2022-12-24T19:36:42.205Z,97379.00
2022-12-24T19:39:09.620Z,97380.72
2022-12-24T19:41:36.883Z,97380.34
2022-12-24T19:44:04.211Z,97385.22
2022-12-24T19:46:36.302Z,97387.50
2022-12-24T19:49:07.509Z,97398.09
2022-12-24T19:51:35.787Z,97404.72
2022-12-24T19:54:05.992Z,97402.28
2022-12-24T19:56:33.966Z,97399.94
2022-12-24T19:59:02.708Z,97407.91
2022-12-24T20:01:33.835Z,97400.25
2022-12-24T20:04:02.526Z,97411.41
2022-12-24T20:06:34.223Z,97412.59
2022-12-24T20:09:05.950Z,97415.06
2022-12-24T20:11:34.194Z,97416.50
2022-12-24T20:14:04.265Z,97414.94
2022-12-24T20:16:32.132Z,97418.06
2022-12-24T20:19:03.803Z,97414.31
2022-12-24T20:21:32.443Z,97417.19
2022-12-24T20:23:59.947Z,97427.34
2022-12-24T20:26:29.486Z,97428.31
2022-12-24T20:28:57.356Z,97424.47
2022-12-24T20:31:30.099Z,97429.16
2022-12-24T20:33:59.089Z,97428.59
2022-12-24T20:36:28.712Z,97432.78
2022-12-24T20:38:58.379Z,97435.34
2022-12-24T20:41:28.699Z,97422.34
2022-12-24T20:43:59.494Z,97425.78
2022-12-24T20:46:27.670Z,97435.56
2022-12-24T20:48:55.909Z,97428.41
2022-12-24T20:51:26.554Z,97435.75
2022-12-24T20:53:58.773Z,97434.16
2022-12-24T20:56:26.627Z,97439.03
2022-12-24T20:58:54.313Z,97432.63
2022-12-24T21:01:25.954Z,97438.19
2022-12-24T21:03:56.456Z,97437.41
2022-12-24T21:06:25.258Z,97440.69
2022-12-24T21:08:53.966Z,97440.88
2022-12-24T21:11:41.017Z,97441.13
2022-12-24T21:14:09.017Z,97440.88
2022-12-24T21:16:37.829Z,97452.44
2022-12-24T21:19:07.705Z,97454.34
2022-12-24T21:21:36.427Z,97445.09
2022-12-24T21:24:06.368Z,97444.06
2022-12-24T21:26:34.317Z,97436.41
2022-12-24T21:29:04.708Z,97453.03
2022-12-24T21:31:32.596Z,97458.78
2022-12-24T21:33:59.954Z,97450.84
2022-12-24T21:36:27.327Z,97463.84
2022-12-24T21:38:55.338Z,97459.81
2022-12-24T21:41:27.279Z,97461.78
2022-12-24T21:43:55.129Z,97460.13
2022-12-24T21:46:25.902Z,97461.31
2022-12-24T21:49:13.782Z,97467.53
2022-12-24T21:51:43.469Z,97467.44
2022-12-24T21:54:23.261Z,97465.84
2022-12-24T21:57:11.029Z,97467.53
2022-12-24T21:59:38.588Z,97468.84
2022-12-24T22:02:07.089Z,97471.47
2022-12-24T22:04:35.436Z,97464.84
2022-12-24T22:07:38.081Z,97469.63
2022-12-24T22:10:25.094Z,97465.66
2022-12-24T22:12:53.636Z,97472.63
2022-12-24T22:15:21.378Z,97476.78
2022-12-24T22:17:48.661Z,97471.22
2022-12-24T22:20:16.046Z,97481.69
2022-12-24T22:22:43.255Z,97480.28
2022-12-24T22:25:10.599Z,97478.59
2022-12-24T22:27:37.839Z,97475.78
2022-12-24T22:30:05.923Z,97468.47
2022-12-24T22:32:33.717Z,97459.59
2022-12-24T22:35:01.131Z,97461.66
2022-12-24T22:37:28.530Z,97467.47
2022-12-24T22:39:55.820Z,97458.56
2022-12-24T22:42:23.100Z,97463.50
2022-12-24T22:44:50.228Z,97463.28
2022-12-24T22:47:17.600Z,97462.94
2022-12-24T22:49:45.071Z,97464.09
2022-12-24T22:52:12.334Z,97460.59
2022-12-24T22:54:39.463Z,97474.13
2022-12-24T22:57:06.671Z,97467.59
2022-12-24T22:59:34.305Z,97468.25
2022-12-24T23:02:06.133Z,97472.72
2022-12-24T23:04:39.396Z,97467.13
2022-12-24T23:07:10.243Z,97466.06
2022-12-24T23:09:38.176Z,97457.84
2022-12-24T23:12:06.794Z,97464.00
2022-12-24T23:14:52.724Z,97462.41
2022-12-24T23:17:20.265Z,97472.59
2022-12-24T23:19:47.594Z,97484.25
2022-12-24T23:22:14.958Z,97484.84
2022-12-24T23:24:42.253Z,97489.44
2022-12-24T23:27:09.583Z,97488.25
2022-12-24T23:29:36.878Z,97494.47
2022-12-24T23:32:04.360Z,97493.44
2022-12-24T23:34:32.530Z,97503.41
2022-12-24T23:36:59.720Z,97506.75
2022-12-24T23:39:27.282Z,97504.28
2022-12-24T23:41:54.612Z,97511.53
2022-12-24T23:44:26.722Z,97519.03
2022-12-24T23:46:57.523Z,97525.28
2022-12-24T23:49:24.796Z,97518.69
2022-12-24T23:51:52.024Z,97521.97
2022-12-24T23:54:19.404Z,97526.09
2022-12-24T23:56:46.730Z,97523.53
2022-12-24T23:59:14.094Z,97525.28
